createdAt,value
2023-04-30T00:01:08.598Z,0.78
2023-04-30T00:02:25.693Z,1.25
2023-04-30T00:03:42.654Z,2.02
2023-04-30T00:04:59.651Z,1.81
2023-04-30T00:06:16.642Z,2.32
2023-04-30T00:07:33.624Z,2.26
2023-04-30T00:08:50.685Z,1.91
2023-04-30T00:10:07.628Z,2.17
2023-04-30T00:11:24.605Z,2.36
2023-04-30T00:12:41.607Z,2.47
2023-04-30T00:13:58.656Z,1.24
2023-04-30T00:15:15.841Z,2.25
2023-04-30T00:16:32.679Z,1.5
2023-04-30T00:17:49.639Z,1.45
2023-04-30T00:19:06.651Z,2.44
2023-04-30T00:20:23.664Z,2.45
2023-04-30T00:21:40.661Z,1.74
2023-04-30T00:22:57.702Z,1.65
2023-04-30T00:24:14.609Z,2.41
2023-04-30T00:25:31.751Z,1.65
2023-04-30T00:26:48.651Z,1.9
2023-04-30T00:28:05.652Z,1.5
2023-04-30T00:29:22.632Z,1.37
2023-04-30T00:30:39.663Z,1.61
2023-04-30T00:31:57.159Z,1.23
2023-04-30T00:33:13.761Z,1.39
2023-04-30T00:34:30.651Z,1.47
2023-04-30T00:35:47.732Z,0.85
2023-04-30T00:37:04.687Z,1.3
2023-04-30T00:38:21.635Z,1.96
2023-04-30T00:39:39.057Z,1.17
2023-04-30T00:40:55.644Z,1.36
2023-04-30T00:42:12.705Z,1.46
2023-04-30T00:43:29.716Z,2.22
2023-04-30T00:44:46.683Z,1.37
2023-04-30T00:46:03.664Z,1.8
2023-04-30T00:47:20.708Z,1.72
2023-04-30T00:48:37.739Z,2.03
2023-04-30T00:49:55.006Z,1.74
2023-04-30T00:51:11.706Z,1.74
2023-04-30T00:52:28.711Z,1.17
2023-04-30T00:53:45.679Z,1.61
2023-04-30T00:55:02.730Z,2.13
2023-04-30T00:56:19.692Z,1.72
2023-04-30T00:57:36.670Z,1.64
2023-04-30T00:58:53.670Z,1.86
2023-04-30T01:00:10.790Z,1.55
2023-04-30T01:01:27.675Z,1.54
2023-04-30T01:02:44.849Z,1.3
2023-04-30T01:04:01.754Z,2.05
2023-04-30T01:05:18.729Z,1.38
2023-04-30T01:06:35.848Z,1
2023-04-30T01:07:52.763Z,2.12
2023-04-30T01:09:09.728Z,1.21
2023-04-30T01:10:26.720Z,1.96
2023-04-30T01:11:43.693Z,1.22
2023-04-30T01:13:00.696Z,0.79
2023-04-30T01:14:17.679Z,0.68
2023-04-30T01:15:34.823Z,0.73
2023-04-30T01:16:51.713Z,1.24
2023-04-30T01:18:08.741Z,1.07
2023-04-30T01:19:25.717Z,1.4
2023-04-30T01:20:42.757Z,1.95
2023-04-30T01:21:59.718Z,1.63
2023-04-30T01:23:16.760Z,1.87
2023-04-30T01:24:33.727Z,1.62
2023-04-30T01:25:50.762Z,1.68
2023-04-30T01:27:07.714Z,1.46
2023-04-30T01:28:24.725Z,0.97
2023-04-30T01:29:41.740Z,1.56
2023-04-30T01:30:58.776Z,1.46
2023-04-30T01:32:15.712Z,1.14
2023-04-30T01:33:32.904Z,0.61
2023-04-30T01:34:49.749Z,1.16
2023-04-30T01:36:06.735Z,1.11
2023-04-30T01:37:23.722Z,0.9
2023-04-30T01:38:40.778Z,1.02
2023-04-30T01:39:57.725Z,0.73
2023-04-30T01:41:16.225Z,1.03
2023-04-30T01:42:35.169Z,1.13
2023-04-30T01:43:52.735Z,1.19
2023-04-30T01:45:09.728Z,1.25
2023-04-30T01:46:26.867Z,1.45
2023-04-30T01:47:43.744Z,1.07
2023-04-30T01:49:00.738Z,0.6
2023-04-30T01:50:17.842Z,1.18
2023-04-30T01:51:34.754Z,0.92
2023-04-30T01:52:51.771Z,1.18
2023-04-30T01:54:08.769Z,1.34
2023-04-30T01:55:25.824Z,1.19
2023-04-30T01:56:42.748Z,1.27
2023-04-30T01:57:59.778Z,1.71
2023-04-30T01:59:16.818Z,1.49
2023-04-30T02:00:33.825Z,1.89
2023-04-30T02:01:50.844Z,1.58
2023-04-30T02:04:24.774Z,1
2023-04-30T02:05:41.799Z,1.27
2023-04-30T02:06:58.856Z,0.97
2023-04-30T02:08:15.755Z,1.22
2023-04-30T02:09:32.818Z,1.16
2023-04-30T02:10:49.793Z,1.24
2023-04-30T02:12:06.840Z,1.55
2023-04-30T02:13:23.862Z,1.67
2023-04-30T02:14:40.786Z,1.45
2023-04-30T02:15:57.919Z,1.4
2023-04-30T02:17:14.835Z,1.78
2023-04-30T02:18:31.783Z,2.06
2023-04-30T02:19:48.817Z,1.61
2023-04-30T02:21:05.788Z,1.23
2023-04-30T02:22:22.821Z,1.42
2023-04-30T02:23:39.828Z,1.09
2023-04-30T02:24:56.818Z,1.68
2023-04-30T02:26:13.830Z,1.04
2023-04-30T02:27:30.810Z,1.23
2023-04-30T02:28:47.795Z,1.27
2023-04-30T02:30:04.820Z,1.11
2023-04-30T02:31:21.870Z,1.21
2023-04-30T02:32:38.815Z,1.08
2023-04-30T02:33:55.789Z,1.01
2023-04-30T02:35:12.795Z,1.13
2023-04-30T02:36:29.856Z,1.07
2023-04-30T02:37:46.798Z,1.04
2023-04-30T02:39:03.822Z,1.25
2023-04-30T02:40:20.844Z,0.97
2023-04-30T02:41:37.891Z,0.63
2023-04-30T02:42:54.834Z,0.83
2023-04-30T02:44:11.872Z,0.83
2023-04-30T02:45:28.893Z,0.81
2023-04-30T02:46:46.319Z,0.83
2023-04-30T02:48:02.856Z,0.87
2023-04-30T02:49:19.840Z,0.83
2023-04-30T02:50:36.860Z,0.57
2023-04-30T02:51:53.865Z,0.82
2023-04-30T02:53:10.909Z,0.88
2023-04-30T02:54:27.819Z,0.48
2023-04-30T02:55:45.362Z,1.02
2023-04-30T02:57:01.866Z,0.74
2023-04-30T02:58:18.882Z,0.72
2023-04-30T02:59:35.881Z,1.02
2023-04-30T03:00:52.892Z,0.67
2023-04-30T03:02:09.857Z,0.76
2023-04-30T03:03:26.946Z,0.68
2023-04-30T03:04:43.928Z,0.79
2023-04-30T03:06:00.949Z,0.74
2023-04-30T03:07:17.846Z,0.82
2023-04-30T03:08:34.835Z,1.77
2023-04-30T03:09:51.974Z,0.63
2023-04-30T03:11:08.990Z,0.66
2023-04-30T03:12:25.866Z,0.61
2023-04-30T03:13:42.844Z,0.92
2023-04-30T03:14:59.857Z,1.21
2023-04-30T03:16:16.940Z,1.19
2023-04-30T03:17:33.926Z,1.71
2023-04-30T03:18:50.885Z,0.97
2023-04-30T03:20:07.963Z,1.43
2023-04-30T03:21:24.880Z,1.11
2023-04-30T03:22:41.942Z,1.39
2023-04-30T03:23:58.863Z,1.4
2023-04-30T03:25:15.925Z,1.14
2023-04-30T03:26:32.985Z,1.73
2023-04-30T03:27:49.963Z,1.13
2023-04-30T03:29:06.886Z,0.75
2023-04-30T03:30:23.899Z,1.18
2023-04-30T03:31:40.893Z,1.68
2023-04-30T03:32:57.966Z,1.23
2023-04-30T03:34:14.882Z,0.86
2023-04-30T03:35:31.878Z,0.86
2023-04-30T03:36:48.896Z,0.82
2023-04-30T03:38:05.914Z,1.23
2023-04-30T03:39:22.961Z,1.07
2023-04-30T03:40:39.923Z,1.25
2023-04-30T03:41:56.968Z,0.8
2023-04-30T03:43:13.960Z,0.89
2023-04-30T03:44:31.549Z,0.85
2023-04-30T03:45:47.933Z,1
2023-04-30T03:47:04.934Z,1.05
2023-04-30T03:48:21.923Z,1
2023-04-30T03:49:40.068Z,0.84
2023-04-30T03:50:56.977Z,0.99
2023-04-30T03:52:13.907Z,1.07
2023-04-30T03:53:30.921Z,1.1
2023-04-30T03:54:47.972Z,1.44
2023-04-30T03:56:04.981Z,0.95
2023-04-30T03:57:21.978Z,1.38
2023-04-30T03:58:38.932Z,0.99
2023-04-30T03:59:56.158Z,1.11
2023-04-30T04:01:12.929Z,1.24
2023-04-30T04:02:30.001Z,1.02
2023-04-30T04:03:46.974Z,1.37
2023-04-30T04:05:03.941Z,1.39
2023-04-30T04:06:21.065Z,1.13
2023-04-30T04:07:38.018Z,1.13
2023-04-30T04:08:55.013Z,1.05
2023-04-30T04:10:12.035Z,1.1
2023-04-30T04:11:28.970Z,1.28
2023-04-30T04:12:46.010Z,2
2023-04-30T04:14:02.966Z,1.01
2023-04-30T04:15:19.973Z,1.05
2023-04-30T04:16:37.092Z,0.6
2023-04-30T04:17:53.987Z,0.84
2023-04-30T04:19:10.955Z,1.44
2023-04-30T04:20:30.607Z,1.47
2023-04-30T04:21:46.983Z,1.25
2023-04-30T04:23:04.004Z,1.21
2023-04-30T04:24:21.037Z,1.35
2023-04-30T04:25:37.975Z,0.75
2023-04-30T04:26:54.957Z,0.81
2023-04-30T04:28:12.049Z,0.96
2023-04-30T04:29:28.972Z,1.24
2023-04-30T04:30:45.978Z,1.49
2023-04-30T04:32:03.106Z,0.95
2023-04-30T04:33:20.022Z,0.81
2023-04-30T04:34:37.048Z,1.09
2023-04-30T04:35:53.974Z,1.71
2023-04-30T04:37:11.096Z,1.29
2023-04-30T04:38:28.192Z,1.32
2023-04-30T04:39:44.994Z,1.08
2023-04-30T04:41:02.002Z,1.63
2023-04-30T04:42:18.998Z,1.8
2023-04-30T04:43:36.059Z,2.54
2023-04-30T04:44:52.981Z,0.8
2023-04-30T04:46:11.756Z,1.19
2023-04-30T04:47:27.013Z,0.91
2023-04-30T04:48:44.085Z,1.22
2023-04-30T04:50:01.127Z,0.88
2023-04-30T04:51:18.354Z,1.25
2023-04-30T04:52:35.063Z,1.24
2023-04-30T04:53:52.024Z,1.1
2023-04-30T04:55:08.998Z,1.27
2023-04-30T04:56:26.093Z,1.03
2023-04-30T04:57:42.998Z,0.66
2023-04-30T04:59:00.025Z,0.51
2023-04-30T05:00:16.996Z,1.69
2023-04-30T05:01:34.134Z,1.02
2023-04-30T05:02:51.112Z,1.47
2023-04-30T05:04:08.072Z,1.41
2023-04-30T05:05:25.012Z,0.74
2023-04-30T05:06:42.109Z,0.94
2023-04-30T05:07:59.005Z,2.5
2023-04-30T05:09:16.082Z,1.54
2023-04-30T05:10:33.016Z,1.71
2023-04-30T05:11:50.093Z,0.5
2023-04-30T05:13:07.117Z,0.97
2023-04-30T05:14:24.101Z,0.74
2023-04-30T05:15:41.064Z,1.95
2023-04-30T05:16:58.156Z,1.14
2023-04-30T05:18:15.053Z,1.74
2023-04-30T05:19:32.150Z,1.53
2023-04-30T05:20:49.038Z,0.67
2023-04-30T05:22:06.081Z,0.85
2023-04-30T05:23:23.249Z,0.69
2023-04-30T05:24:40.080Z,0.92
2023-04-30T05:25:57.073Z,1.18
2023-04-30T05:27:14.083Z,1.27
2023-04-30T05:28:31.082Z,1.46
2023-04-30T05:29:48.095Z,1.09
2023-04-30T05:31:05.140Z,0.87
2023-04-30T05:32:22.150Z,0.83
2023-04-30T05:33:39.163Z,1.7
2023-04-30T05:34:56.164Z,1.28
2023-04-30T05:36:13.106Z,1.29
2023-04-30T05:37:30.153Z,2.02
2023-04-30T05:38:47.091Z,1.19
2023-04-30T05:40:04.138Z,1.61
2023-04-30T05:41:21.168Z,1.3
2023-04-30T05:42:38.117Z,0.65
2023-04-30T05:43:55.137Z,1.21
2023-04-30T05:45:12.310Z,1.22
2023-04-30T05:46:29.447Z,1.73
2023-04-30T05:47:46.146Z,1.32
2023-04-30T05:49:03.134Z,2.4
2023-04-30T05:50:20.111Z,2.13
2023-04-30T05:51:37.073Z,1.01
2023-04-30T05:52:54.094Z,1.69
2023-04-30T05:54:11.112Z,1.83
2023-04-30T05:55:28.147Z,1.61
2023-04-30T05:56:45.075Z,1.49
2023-04-30T05:58:02.103Z,1.81
2023-04-30T05:59:19.119Z,2.34
2023-04-30T06:00:36.166Z,3.14
2023-04-30T06:01:53.156Z,1.35
2023-04-30T06:03:10.194Z,1.86
2023-04-30T06:04:27.155Z,2.27
2023-04-30T06:05:44.201Z,2.08
2023-04-30T06:07:01.176Z,1.8
2023-04-30T06:08:18.104Z,2.38
2023-04-30T06:09:35.157Z,3.15
2023-04-30T06:10:52.157Z,1.75
2023-04-30T06:12:09.120Z,1.54
2023-04-30T06:13:26.347Z,1.18
2023-04-30T06:14:43.141Z,2.16
2023-04-30T06:16:00.198Z,2.96
2023-04-30T06:17:17.127Z,1.66
2023-04-30T06:18:34.134Z,2.43
2023-04-30T06:19:51.154Z,1.93
2023-04-30T06:21:08.135Z,2.27
2023-04-30T06:22:25.111Z,1.55
2023-04-30T06:23:42.169Z,2.73
2023-04-30T06:24:59.130Z,1.33
2023-04-30T06:26:16.124Z,1.86
2023-04-30T06:27:33.140Z,2.73
2023-04-30T06:28:50.169Z,1.75
2023-04-30T06:30:07.175Z,2.34
2023-04-30T06:31:24.221Z,2.83
2023-04-30T06:32:41.207Z,3.36
2023-04-30T06:33:58.174Z,2.08
2023-04-30T06:35:15.192Z,1.39
2023-04-30T06:36:32.138Z,2.09
2023-04-30T06:37:49.163Z,1.28
2023-04-30T06:39:06.185Z,2.25
2023-04-30T06:40:23.160Z,1.14
2023-04-30T06:41:40.455Z,2.41
2023-04-30T06:42:57.174Z,1.29
2023-04-30T06:44:14.166Z,0.57
2023-04-30T06:45:31.151Z,1.04
2023-04-30T06:46:48.215Z,1.12
2023-04-30T06:48:05.253Z,2.44
2023-04-30T06:49:22.196Z,1.64
2023-04-30T06:50:39.190Z,1.46
2023-04-30T06:51:56.190Z,2.07
2023-04-30T06:53:13.218Z,1.26
2023-04-30T06:54:30.180Z,2.1
2023-04-30T06:55:47.262Z,1.04
2023-04-30T06:57:04.266Z,0.97
2023-04-30T06:58:21.201Z,1.72
2023-04-30T06:59:38.192Z,1.64
2023-04-30T07:00:55.232Z,2.93
2023-04-30T07:02:12.238Z,2.51
2023-04-30T07:03:29.370Z,3.66
2023-04-30T07:04:46.230Z,1.3
2023-04-30T07:06:03.264Z,1.58
2023-04-30T07:07:20.239Z,1.98
2023-04-30T07:08:37.222Z,3.15
2023-04-30T07:09:54.422Z,2.3
2023-04-30T07:11:11.233Z,1.03
2023-04-30T07:12:28.576Z,1.21
2023-04-30T07:13:45.207Z,0.91
2023-04-30T07:15:02.232Z,3.25
2023-04-30T07:16:19.267Z,2.62
2023-04-30T07:17:36.295Z,3.38
2023-04-30T07:18:53.196Z,1.5
2023-04-30T07:20:10.227Z,1.88
2023-04-30T07:21:27.233Z,2.2
2023-04-30T07:22:44.322Z,2.51
2023-04-30T07:24:01.220Z,2.29
2023-04-30T07:25:18.219Z,3.21
2023-04-30T07:26:35.962Z,1.71
2023-04-30T07:27:53.251Z,1.13
2023-04-30T07:29:10.276Z,2.72
2023-04-30T07:30:27.232Z,1.72
2023-04-30T07:31:44.926Z,1.14
2023-04-30T07:33:02.371Z,1.24
2023-04-30T07:34:19.412Z,2.77
2023-04-30T07:35:36.220Z,2.74
2023-04-30T07:36:53.285Z,2.08
2023-04-30T07:38:10.244Z,2.51
2023-04-30T07:39:27.266Z,2.57
2023-04-30T07:40:44.299Z,2.33
2023-04-30T07:42:01.245Z,3.23
2023-04-30T07:43:18.283Z,2.53
2023-04-30T07:44:35.257Z,1.42
2023-04-30T07:45:52.293Z,1.59
2023-04-30T07:47:09.258Z,0.42
2023-04-30T07:48:26.658Z,1.56
2023-04-30T07:49:43.272Z,2.18
2023-04-30T07:51:00.309Z,2.91
2023-04-30T07:52:17.287Z,4
2023-04-30T07:53:34.304Z,2.68
2023-04-30T07:54:51.293Z,4.25
2023-04-30T07:56:08.283Z,1.32
2023-04-30T07:57:25.302Z,1.81
2023-04-30T07:58:42.289Z,2.64
2023-04-30T07:59:59.488Z,2.14
2023-04-30T08:01:16.278Z,2.79
2023-04-30T08:02:33.402Z,3
2023-04-30T08:03:50.560Z,2.36
2023-04-30T08:05:07.292Z,1.98
2023-04-30T08:06:24.347Z,0.95
2023-04-30T08:07:41.292Z,0.75
2023-04-30T08:08:58.351Z,1.68
2023-04-30T08:10:15.282Z,3.07
2023-04-30T08:11:32.404Z,3.1
2023-04-30T08:12:49.300Z,2.68
2023-04-30T08:14:06.349Z,2.98
2023-04-30T08:15:23.313Z,2.14
2023-04-30T08:16:40.387Z,2.43
2023-04-30T08:17:57.390Z,0.9
2023-04-30T08:19:14.373Z,0.74
2023-04-30T08:20:31.306Z,2
2023-04-30T08:21:48.308Z,1.72
2023-04-30T08:23:05.872Z,3.02
2023-04-30T08:24:22.367Z,3.16
2023-04-30T08:25:39.347Z,3.37
2023-04-30T08:26:56.359Z,3.12
2023-04-30T08:28:13.396Z,2.93
2023-04-30T08:29:30.367Z,2.54
2023-04-30T08:30:47.306Z,1.3
2023-04-30T08:32:04.409Z,1.58
2023-04-30T08:33:21.409Z,1.7
2023-04-30T08:34:38.337Z,1.83
2023-04-30T08:35:55.432Z,2.77
2023-04-30T08:37:12.367Z,3.55
2023-04-30T08:38:29.330Z,2.16
2023-04-30T08:39:46.387Z,3.16
2023-04-30T08:41:03.332Z,2.85
2023-04-30T08:42:20.345Z,2.91
2023-04-30T08:43:37.365Z,3.03
2023-04-30T08:44:54.408Z,2.42
2023-04-30T08:46:11.462Z,2
2023-04-30T08:47:28.378Z,1.97
2023-04-30T08:48:45.378Z,2.6
2023-04-30T08:50:02.403Z,3.96
2023-04-30T08:51:19.403Z,3.08
2023-04-30T08:52:36.362Z,2.21
2023-04-30T08:53:53.383Z,1.07
2023-04-30T08:55:10.353Z,2.17
2023-04-30T08:56:27.347Z,2.82
2023-04-30T08:57:44.428Z,3.67
2023-04-30T08:59:03.925Z,4.14
2023-04-30T09:00:18.487Z,3.8
2023-04-30T09:01:35.497Z,3.52
2023-04-30T09:02:52.748Z,2.81
2023-04-30T09:04:09.561Z,2.69
2023-04-30T09:05:26.711Z,3
2023-04-30T09:06:43.731Z,2.77
2023-04-30T09:08:03.872Z,3.2
2023-04-30T09:09:17.371Z,4.38
2023-04-30T09:10:34.432Z,2.16
2023-04-30T09:11:51.749Z,2.13
2023-04-30T09:13:08.416Z,1.02
2023-04-30T09:14:25.432Z,2.11
2023-04-30T09:15:42.388Z,2.64
2023-04-30T09:16:59.545Z,2.08
2023-04-30T09:18:16.468Z,2.96
2023-04-30T09:19:33.385Z,4.52
2023-04-30T09:20:50.422Z,4.89
2023-04-30T09:22:07.416Z,3.74
2023-04-30T09:23:24.388Z,3.32
2023-04-30T09:24:41.396Z,2.76
2023-04-30T09:25:58.426Z,2.63
2023-04-30T09:27:15.459Z,1.14
2023-04-30T09:28:32.408Z,3.63
2023-04-30T09:29:49.426Z,4.14
2023-04-30T09:31:06.518Z,3.74
2023-04-30T09:32:23.477Z,4.44
2023-04-30T09:33:40.419Z,3.31
2023-04-30T09:34:57.402Z,3.44
2023-04-30T09:36:14.457Z,3.29
2023-04-30T09:37:31.433Z,4.6
2023-04-30T09:38:48.420Z,3.36
2023-04-30T09:40:05.471Z,1
2023-04-30T09:41:22.471Z,1.05
2023-04-30T09:42:39.461Z,2.31
2023-04-30T09:43:56.434Z,1.15
2023-04-30T09:45:13.498Z,1.72
2023-04-30T09:46:30.455Z,1.52
2023-04-30T09:47:47.487Z,1.04
2023-04-30T09:49:04.444Z,1.79
2023-04-30T09:50:21.501Z,2.78
2023-04-30T09:51:38.477Z,2.46
2023-04-30T09:52:55.440Z,1.63
2023-04-30T09:54:12.473Z,2.13
2023-04-30T09:55:29.515Z,1.67
2023-04-30T09:56:46.453Z,2.18
2023-04-30T09:58:03.477Z,0.99
2023-04-30T09:59:20.446Z,0.66
2023-04-30T10:00:37.555Z,1.62
2023-04-30T10:01:54.522Z,1.17
2023-04-30T10:03:11.515Z,2.07
2023-04-30T10:04:28.559Z,2.68
2023-04-30T10:05:45.501Z,2.71
2023-04-30T10:07:02.542Z,2.54
2023-04-30T10:08:19.487Z,1.64
2023-04-30T10:09:36.470Z,1.76
2023-04-30T10:10:53.553Z,2.03
2023-04-30T10:12:10.497Z,3.01
2023-04-30T10:13:27.504Z,2.16
2023-04-30T10:14:44.509Z,2.48
2023-04-30T10:16:01.522Z,1.82
2023-04-30T10:17:18.512Z,3.5
2023-04-30T10:18:35.533Z,4.04
2023-04-30T10:19:52.776Z,2.15
2023-04-30T10:21:09.528Z,2.91
2023-04-30T10:22:26.801Z,2.52
2023-04-30T10:23:43.590Z,1.6
2023-04-30T10:25:00.555Z,1.59
2023-04-30T10:26:17.807Z,1.85
2023-04-30T10:27:34.492Z,2.39
2023-04-30T10:28:51.508Z,1.37
2023-04-30T10:30:08.588Z,1.63
2023-04-30T10:31:25.517Z,3.68
2023-04-30T10:32:42.553Z,2.58
2023-04-30T10:33:59.561Z,3.78
2023-04-30T10:35:16.543Z,4.78
2023-04-30T10:36:33.552Z,4.8
2023-04-30T10:37:50.865Z,4.98
2023-04-30T10:39:07.526Z,3.17
2023-04-30T10:40:24.540Z,1.51
2023-04-30T10:41:41.543Z,3.36
2023-04-30T10:42:58.525Z,3.9
2023-04-30T10:44:15.552Z,2.13
2023-04-30T10:45:32.517Z,1.64
2023-04-30T10:46:49.582Z,2.71
2023-04-30T10:48:06.668Z,2.15
2023-04-30T10:49:23.517Z,2.15
2023-04-30T10:50:40.563Z,1.77
2023-04-30T10:51:57.558Z,2.81
2023-04-30T10:53:14.614Z,2.31
2023-04-30T10:54:31.535Z,2.73
2023-04-30T10:55:48.597Z,2.33
2023-04-30T10:57:05.541Z,1.93
2023-04-30T10:58:22.549Z,1.58
2023-04-30T10:59:39.573Z,2.11
2023-04-30T11:00:56.575Z,2.83
2023-04-30T11:02:13.543Z,1.83
2023-04-30T11:03:30.750Z,3.15
2023-04-30T11:04:47.583Z,1.83
2023-04-30T11:06:04.598Z,2.41
2023-04-30T11:07:21.593Z,2.19
2023-04-30T11:08:38.605Z,1.74
2023-04-30T11:09:55.875Z,2
2023-04-30T11:11:12.579Z,2.5
2023-04-30T11:12:29.640Z,3.21
2023-04-30T11:13:46.622Z,2.95
2023-04-30T11:15:03.581Z,3.88
2023-04-30T11:16:20.643Z,1.22
2023-04-30T11:17:37.673Z,1.96
2023-04-30T11:18:54.605Z,1.91
2023-04-30T11:20:11.688Z,1.2
2023-04-30T11:21:28.581Z,1.58
2023-04-30T11:22:45.608Z,1.39
2023-04-30T11:24:02.646Z,5.13
2023-04-30T11:25:19.579Z,1.28
2023-04-30T11:26:36.578Z,0.51
2023-04-30T11:27:53.677Z,1.07
2023-04-30T11:29:10.711Z,0.37
2023-04-30T11:30:27.584Z,2.8
2023-04-30T11:31:44.641Z,3.59
2023-04-30T11:33:01.645Z,2.59
2023-04-30T11:34:18.620Z,3.12
2023-04-30T11:35:35.606Z,2.87
2023-04-30T11:36:52.623Z,2.45
2023-04-30T11:38:09.635Z,0.92
2023-04-30T11:39:26.663Z,1.23
2023-04-30T11:40:43.613Z,1.28
2023-04-30T11:42:00.722Z,2.81
2023-04-30T11:43:17.639Z,0.98
2023-04-30T11:44:34.642Z,2.32
2023-04-30T11:45:51.631Z,1.47
2023-04-30T11:47:08.785Z,3.57
2023-04-30T11:48:25.669Z,3.54
2023-04-30T11:49:42.647Z,2.05
2023-04-30T11:50:59.667Z,1.98
2023-04-30T11:52:16.642Z,2.94
2023-04-30T11:53:33.673Z,3.39
2023-04-30T11:54:50.817Z,1.97
2023-04-30T11:56:07.668Z,2.2
2023-04-30T11:57:24.701Z,3
2023-04-30T11:58:41.654Z,2
2023-04-30T11:59:58.665Z,1.19
2023-04-30T12:01:15.865Z,1.46
2023-04-30T12:02:32.768Z,1.43
2023-04-30T12:03:49.858Z,1.34
2023-04-30T12:05:06.666Z,1.85
2023-04-30T12:06:23.749Z,1.59
2023-04-30T12:07:40.743Z,1.96
2023-04-30T12:08:57.705Z,2.13
2023-04-30T12:10:14.677Z,2.16
2023-04-30T12:11:31.660Z,1.73
2023-04-30T12:12:49.277Z,0.63
2023-04-30T12:14:05.689Z,1.33
2023-04-30T12:15:22.668Z,1.36
2023-04-30T12:16:39.789Z,1.4
2023-04-30T12:17:56.755Z,1.83
2023-04-30T12:19:13.733Z,2.53
2023-04-30T12:20:30.678Z,2.25
2023-04-30T12:21:47.699Z,1.89
2023-04-30T12:23:04.675Z,0.91
2023-04-30T12:24:21.763Z,0.72
2023-04-30T12:25:38.705Z,0.8
2023-04-30T12:26:55.725Z,0.57
2023-04-30T12:28:12.696Z,0.46
2023-04-30T12:29:29.736Z,1.68
2023-04-30T12:30:46.701Z,1.73
2023-04-30T12:32:03.722Z,1.91
2023-04-30T12:33:20.846Z,1.95
2023-04-30T12:34:37.758Z,1.67
2023-04-30T12:35:54.719Z,1.32
2023-04-30T12:37:11.706Z,1.96
2023-04-30T12:38:28.714Z,1.21
2023-04-30T12:39:45.736Z,0.81
2023-04-30T12:41:03.150Z,0.79
2023-04-30T12:42:19.708Z,2.05
2023-04-30T12:43:36.722Z,1.62
2023-04-30T12:44:53.790Z,1.01
2023-04-30T12:46:10.726Z,0.44
2023-04-30T12:47:27.764Z,1.02
2023-04-30T12:48:44.755Z,1.7
2023-04-30T12:50:01.896Z,1.18
2023-04-30T12:51:18.763Z,1.47
2023-04-30T12:52:35.740Z,1.99
2023-04-30T12:53:52.752Z,1.62
2023-04-30T12:55:09.782Z,2.65
2023-04-30T12:56:26.762Z,1.89
2023-04-30T12:57:43.790Z,2.13
2023-04-30T12:59:00.781Z,1.53
2023-04-30T13:00:17.768Z,1.22
2023-04-30T13:01:34.820Z,0.64
2023-04-30T13:02:52.105Z,1.52
2023-04-30T13:04:09.353Z,0.58
2023-04-30T13:05:25.750Z,1.08
2023-04-30T13:06:42.896Z,2.53
2023-04-30T13:07:59.799Z,1.56
2023-04-30T13:09:16.977Z,1.55
2023-04-30T13:10:33.792Z,0.93
2023-04-30T13:11:50.778Z,2.24
2023-04-30T13:13:07.765Z,1.89
2023-04-30T13:14:24.826Z,1.6
2023-04-30T13:15:41.852Z,2.38
2023-04-30T13:16:58.777Z,1.63
2023-04-30T13:18:15.933Z,1.77
2023-04-30T13:19:32.931Z,2.55
2023-04-30T13:20:49.944Z,2.59
2023-04-30T13:22:06.811Z,2.37
2023-04-30T13:23:23.844Z,1.96
2023-04-30T13:24:40.834Z,1.52
2023-04-30T13:25:58.197Z,1.19
2023-04-30T13:27:14.800Z,0.96
2023-04-30T13:28:31.890Z,0.49
2023-04-30T13:29:48.792Z,1.05
2023-04-30T13:31:05.870Z,1.88
2023-04-30T13:32:23.064Z,1.49
2023-04-30T13:33:39.822Z,1.83
2023-04-30T13:34:56.869Z,1.69
2023-04-30T13:36:13.855Z,1.4
2023-04-30T13:37:30.851Z,0.76
2023-04-30T13:38:47.799Z,0.61
2023-04-30T13:40:04.860Z,1.09
2023-04-30T13:41:21.830Z,1.12
2023-04-30T13:42:38.916Z,0.91
2023-04-30T13:43:55.893Z,0.65
2023-04-30T13:45:12.879Z,1.11
2023-04-30T13:46:29.925Z,2.07
2023-04-30T13:47:46.904Z,1.59
2023-04-30T13:49:03.865Z,1.8
2023-04-30T13:50:20.858Z,2.5
2023-04-30T13:51:37.871Z,1.17
2023-04-30T13:52:54.808Z,1.86
2023-04-30T13:54:11.867Z,1.65
2023-04-30T13:55:28.820Z,2.14
2023-04-30T13:56:45.890Z,1.41
2023-04-30T13:58:02.942Z,0.4
2023-04-30T13:59:19.918Z,0.78
2023-04-30T14:00:37.009Z,0.92
2023-04-30T14:01:53.910Z,1.41
2023-04-30T14:03:10.938Z,1.87
2023-04-30T14:04:27.855Z,1.64
2023-04-30T14:05:44.870Z,1.55
2023-04-30T14:07:01.872Z,1.25
2023-04-30T14:08:20.086Z,1.58
2023-04-30T14:09:35.933Z,1.79
2023-04-30T14:10:52.866Z,1.09
2023-04-30T14:12:09.877Z,0.65
2023-04-30T14:13:26.994Z,2.04
2023-04-30T14:14:43.916Z,1.02
2023-04-30T14:16:00.943Z,1.12
2023-04-30T14:17:17.882Z,1.92
2023-04-30T14:18:34.908Z,1.56
2023-04-30T14:19:51.889Z,1.07
2023-04-30T14:21:09.021Z,1.92
2023-04-30T14:22:25.907Z,1.48
2023-04-30T14:23:42.891Z,1.43
2023-04-30T14:24:59.898Z,2.02
2023-04-30T14:26:16.960Z,1.57
2023-04-30T14:27:33.907Z,1.94
2023-04-30T14:28:50.904Z,1.97
2023-04-30T14:30:07.957Z,1.43
2023-04-30T14:31:24.964Z,2.07
2023-04-30T14:32:41.988Z,2.15
2023-04-30T14:33:58.903Z,2.46
2023-04-30T14:35:15.950Z,2.21
2023-04-30T14:36:32.927Z,1.62
2023-04-30T14:37:49.929Z,1.4
2023-04-30T14:39:06.910Z,1.88
2023-04-30T14:40:23.950Z,1.6
2023-04-30T14:41:40.952Z,1.15
2023-04-30T14:42:57.974Z,1.46
2023-04-30T14:44:14.968Z,0.7
2023-04-30T14:45:32.008Z,1.48
2023-04-30T14:46:48.936Z,0.74
2023-04-30T14:48:06.085Z,0.75
2023-04-30T14:49:23.000Z,0.55
2023-04-30T14:50:40.010Z,0.6
2023-04-30T14:51:56.978Z,1.16
2023-04-30T14:53:13.930Z,1.41
2023-04-30T14:54:30.966Z,2.1
2023-04-30T14:55:47.957Z,2.66
2023-04-30T14:57:04.991Z,1.98
2023-04-30T14:58:22.062Z,1.51
2023-04-30T14:59:39.065Z,1.64
2023-04-30T15:00:56.025Z,2.77
2023-04-30T15:02:13.006Z,1.98
2023-04-30T15:03:30.187Z,2.24
2023-04-30T15:04:47.083Z,1.73
2023-04-30T15:06:04.176Z,2.82
2023-04-30T15:07:21.018Z,2.36
2023-04-30T15:08:38.000Z,2.07
2023-04-30T15:09:55.171Z,1.31
2023-04-30T15:11:12.304Z,0.99
2023-04-30T15:12:30.020Z,0.78
2023-04-30T15:13:47.049Z,1.22
2023-04-30T15:15:04.122Z,1.14
2023-04-30T15:16:21.210Z,0.8
2023-04-30T15:17:38.263Z,1.28
2023-04-30T15:18:55.007Z,1.69
2023-04-30T15:20:12.049Z,0.82
2023-04-30T15:21:29.115Z,1.61
2023-04-30T15:22:46.215Z,0.56
2023-04-30T15:24:03.079Z,0.71
2023-04-30T15:25:20.020Z,0.51
2023-04-30T15:26:37.246Z,2.4
2023-04-30T15:27:54.054Z,1.98
2023-04-30T15:29:11.138Z,1.24
2023-04-30T15:30:28.065Z,1.39
2023-04-30T15:31:45.174Z,0.99
2023-04-30T15:33:02.062Z,0.89
2023-04-30T15:34:19.016Z,1.06
2023-04-30T15:35:36.010Z,0.55
2023-04-30T15:36:53.095Z,0.59
2023-04-30T15:38:10.047Z,0.54
2023-04-30T15:39:27.198Z,0.55
2023-04-30T15:40:44.026Z,1.49
2023-04-30T15:42:01.144Z,1.14
2023-04-30T15:43:18.511Z,1.53
2023-04-30T15:44:35.029Z,1.63
2023-04-30T15:45:52.257Z,2.07
2023-04-30T15:47:09.410Z,1.64
2023-04-30T15:48:26.086Z,2.08
2023-04-30T15:49:43.072Z,2.47
2023-04-30T15:51:00.110Z,1.85
2023-04-30T15:52:17.081Z,1.18
2023-04-30T15:53:34.154Z,0.74
2023-04-30T15:54:51.097Z,0.82
2023-04-30T15:56:08.252Z,1.16
2023-04-30T15:57:25.115Z,1.35
2023-04-30T15:58:42.102Z,1.76
2023-04-30T15:59:59.390Z,1.01
2023-04-30T16:01:16.242Z,1.18
2023-04-30T16:02:33.348Z,1.69
2023-04-30T16:03:50.307Z,1.15
2023-04-30T16:05:07.163Z,0.61
2023-04-30T16:06:28.315Z,0.45
2023-04-30T16:07:45.861Z,0.47
2023-04-30T16:09:09.431Z,0.99
2023-04-30T16:10:26.142Z,0.78
2023-04-30T16:11:43.531Z,1.51
2023-04-30T16:13:01.132Z,2.07
2023-04-30T16:14:18.767Z,1.24
2023-04-30T16:15:35.139Z,2.19
2023-04-30T16:16:52.258Z,1.72
2023-04-30T16:18:09.102Z,1.62
2023-04-30T16:19:26.523Z,1.51
2023-04-30T16:20:43.139Z,1.53
2023-04-30T16:22:00.265Z,1.4
2023-04-30T16:23:17.112Z,1.31
2023-04-30T16:24:34.128Z,1.21
2023-04-30T16:25:51.213Z,1.24
2023-04-30T16:27:09.770Z,1.69
2023-04-30T16:29:58.496Z,0.81
2023-04-30T16:31:15.217Z,1.55
2023-04-30T16:32:32.248Z,1.76
2023-04-30T16:33:49.170Z,0.9
2023-04-30T16:35:06.133Z,0.84
2023-04-30T16:36:23.164Z,1.07
2023-04-30T16:37:40.115Z,1.36
2023-04-30T16:38:57.170Z,1.14
2023-04-30T16:40:14.121Z,1.15
2023-04-30T16:41:31.092Z,1.04
2023-04-30T16:42:48.094Z,0.92
2023-04-30T16:44:05.179Z,0.88
2023-04-30T16:45:22.160Z,0.39
2023-04-30T16:46:39.173Z,1.14
2023-04-30T16:47:57.054Z,0.6
2023-04-30T16:49:13.313Z,0.53
2023-04-30T16:50:30.200Z,0.54
2023-04-30T16:51:47.251Z,1.17
2023-04-30T16:53:06.200Z,0.75
2023-04-30T16:54:24.139Z,1.44
2023-04-30T16:55:41.249Z,1.03
2023-04-30T16:56:58.332Z,1.33
2023-04-30T16:58:15.229Z,0.75
2023-04-30T16:59:32.111Z,0.71
2023-04-30T17:00:49.221Z,0.57
2023-04-30T17:02:06.135Z,0.5
2023-04-30T17:03:23.418Z,0.56
2023-04-30T17:04:42.112Z,0.47
2023-04-30T17:05:59.308Z,0.39
2023-04-30T17:07:16.635Z,0.95
2023-04-30T17:08:33.190Z,0.89
2023-04-30T17:09:50.309Z,0.46
2023-04-30T17:11:07.531Z,0.61
2023-04-30T17:12:24.394Z,0.43
2023-04-30T17:13:41.314Z,0.9